Pelham, Massachusetts
Current Conditions -  °F | °C
As of 11:58 AM on Sunday 21 Dec 2014 (Local Time) from KCEF Reporting Station
Light Snow Light Snow  
Wind Chill: 25°   Ceiling: 1200
Heat Index: 32°   Visibility: 5mi
Dew Point: 29°   Wind: 7mph
Humidity: 89%   Direction: 360°N
Pressure: 30.29"   Gusts: NA
Location:  42.3773°N, 72.4671°W
Report Text: KCEF 211658Z 36006KT 5SM -SN SCT008 OVC012 M00/M02 A3029 RMK AO2A SLP266 P0000 T10011017
Loading
Personal Weather Stations






























Interactive Weather Map New forecast layout! Learn more

10-Day Weather Forecast

Advertisements
Track Severe Weather on mobile